Kezdőlap
METAR-TAF:

METAR-TAF

Repülőterek :

Lappeenranta, Finnország

földrajzi szélesség: 61-02-45N, földrajzi hosszúság: 028-08-55E, magasság: 106 m

Jelenlegi meteorológiai megfigyelések

A jelentés 8 órával és 4 perccel ezelõtt készült, 05:20 UTC
Nyugati szél 9 kt, nyugat-délnyugati és északnyugati között változik
Hőmérséklet 12°C
Páratartalom 88%
Légköri nyomás 1000 hPa
Látótávolság 10 km, vagy több
Borult 5500 lábon
enyhe esõ

METAR: EFLP 210520Z AUTO 28009KT 250V320 9999 -RA OVC055 12/10 Q1000

Idő: 16:24 (13:24 UTC)


TAF: hiányzik

Meteorológiai megfigyelések és előrejelzések több, mint 4000 repülőtéren (METAR és TAF jelentéseket).

A térképen piros és sárga pontok jelzik az elérhető meteorológiai állomásokat.

Mozgassa az egeret a pont fölött, hogy megjelenjen az állomás neve.

Azután kattintson az időjárási megfigyelések és előrejelzések megtekintéséhez.

A térkép megváltoztatása: kattintson a fekete keresztel jelölt zöld gombra ráközelítéshez, a vonallal jelölt zöld gombra távolításhoz, vagy a zöld nyilakra a szomszédos térképek eléréséhez.


METAR-TAF: